HLA weather

Lanseria Airport
Johannesburg, Gauteng, South Africa

Public forecast

Using degrees Celsius for public forecast. Weather courtesy of forecast.io.

Current aviation weather report (METAR) for Lanseria Airport

Retrieved 2020/06/06 14:00 UTC (1 hour ago):

FALA 061400Z 04003KT 320V100 CAVOK 20/03 Q1029 NOSIG

Aviation forecast (TAF) for Lanseria Airport

Retrieved 2020/06/06 12:00 UTC (3 hours ago):

TAF FALA 061000Z 0612/0712 VRB03KT CAVOK TX20/0613Z TN04/0704Z PROB30 TEMPO 0703/0706 4000 BR NSC